Página principal
METAR-TAF:

METAR-TAF

Aeroportos :

Wales, Alasca, Estados Unidos

latitude: 65-37-21N, longitude: 168-05-42W, altura: 7 m

Observação actual do tempo

O boletim foi feito há 1 hora e 5 minutos, às 19:56 UTC
Vento 9 kt de nordeste
Temperatura 7°C
Humidade 76%
Pressão 1017 hPa
Visibilidade: 16.1 km
Céu limpo

METAR: PAIW 171956Z AUTO 04009KT 10SM CLR 07/03 A3003 RMK AO2 SLP169 T00720033

Hora: 13:01 (21:01 UTC)


TAF: em falta

Observações e previsões do tempo de mais de 4000 aeroportos (mensagens METAR e TAF).

As estações disponíveis são os pontos amarelos e vermelhos sobre o mapa.

Mova o rato sobre o mapa para ver o nome da estação.

Depois clique no ponto para visualizar as observações e previsões meteorológicas.

Para alterar o mapa : clique nos botões verdes com uma cruz preta para aumentar o zoom; no botão verde com uma pitada de zoom; ou nas setas verdes para mapas adjacentes.


METAR-TAF: